Time;durP1;ratioP1;P1;durP2;ratioP2;P2;SDS_P1;SDS_P2;PMS_P1;PMS_P2;Temp;Humidity;BMP_temperature;BMP_pressure;BME280_temperature;BME280_humidity;BME280_pressure;Samples;Min_cycle;Max_cycle;Signal;HPM_P1;HPM_P2
2021/12/21 00:02:39;;;;;;;5.80;4.20;;;;;;;-0.09;97.29;99048.27;1697454;84;21329;-82
2021/12/21 00:05:44;;;;;;;5.95;3.85;;;;;;;-0.08;97.48;99046.77;1690532;84;21195;-82
2021/12/21 00:08:50;;;;;;;7.10;4.72;;;;;;;0.01;97.77;99043.74;1689599;85;21828;-81
2021/12/21 00:11:49;;;;;;;6.37;4.53;;;;;;;0.09;97.95;99044.36;1689699;85;21294;-82
2021/12/21 00:15:15;;;;;;;5.72;4.67;;;;;;;0.13;97.85;99037.72;1689561;84;21290;-82
2021/12/21 00:18:27;;;;;;;9.58;4.40;;;;;;;0.14;97.79;99040.29;1689534;85;21330;-82
2021/12/21 00:24:33;;;;;;;7.80;5.33;;;;;;;0.22;97.76;99035.03;1689490;85;21931;-82
2021/12/21 00:27:34;;;;;;;5.85;5.05;;;;;;;0.28;97.65;99039.48;1688281;85;21728;-83
2021/12/21 00:30:40;;;;;;;7.62;4.78;;;;;;;0.32;97.64;99043.09;1689452;84;21306;-83
2021/12/21 00:33:47;;;;;;;8.18;5.20;;;;;;;0.37;97.61;99041.33;1667452;86;21901;-81
2021/12/21 00:36:52;;;;;;;7.03;5.03;;;;;;;0.42;97.62;99045.28;1702511;83;21804;-81
2021/12/21 00:39:58;;;;;;;6.92;5.33;;;;;;;0.49;97.55;99048.27;1718030;83;21309;-81
2021/12/21 00:43:05;;;;;;;11.70;6.53;;;;;;;0.55;97.39;99049.03;1717207;83;21800;-81
2021/12/21 00:46:09;;;;;;;8.45;5.83;;;;;;;0.58;97.28;99036.64;1717276;82;21340;-81
2021/12/21 00:49:17;;;;;;;8.33;5.92;;;;;;;0.60;97.08;99037.34;1718187;83;21796;-82
2021/12/21 00:52:22;;;;;;;6.53;5.42;;;;;;;0.57;96.84;99045.72;1716786;83;21306;-82
2021/12/21 00:55:29;;;;;;;7.45;5.33;;;;;;;0.54;96.45;99048.69;1716857;83;21282;-82
2021/12/21 00:58:34;;;;;;;11.30;5.78;;;;;;;0.44;96.04;99051.38;1717100;83;21369;-82
2021/12/21 01:01:42;;;;;;;12.13;6.62;;;;;;;0.37;95.88;99048.89;1717715;82;21313;-82
2021/12/21 01:04:49;;;;;;;11.43;6.72;;;;;;;0.32;95.98;99050.32;1718414;83;21302;-82
2021/12/21 01:07:58;;;;;;;12.75;7.47;;;;;;;0.27;96.18;99045.36;1688201;85;21680;-82
2021/12/21 01:11:09;;;;;;;13.08;7.47;;;;;;;0.25;96.33;99050.05;1688077;85;21583;-83
2021/12/21 01:17:26;;;;;;;10.43;6.58;;;;;;;0.25;96.71;99052.23;1687630;85;21341;-82
2021/12/21 01:20:33;;;;;;;15.68;7.80;;;;;;;0.24;96.58;99045.67;1691576;83;21664;-82
2021/12/21 01:36:35;;;;;;;14.55;8.33;;;;;;;-0.05;96.46;99040.25;1717837;83;21354;-82
2021/12/21 01:39:57;;;;;;;14.70;8.35;;;;;;;-0.06;96.53;99047.97;1718280;83;21302;-82
2021/12/21 01:49:49;;;;;;;14.68;8.75;;;;;;;-0.04;96.83;99060.79;1718337;83;21301;-82
2021/12/21 01:52:51;;;;;;;16.37;9.65;;;;;;;0.02;97.02;99060.72;1660179;85;21258;-81
2021/12/21 01:55:56;;;;;;;15.63;9.25;;;;;;;-0.02;96.73;99058.80;1689418;85;21370;-84
2021/12/21 01:59:04;;;;;;;16.93;8.93;;;;;;;-0.07;96.40;99057.02;1692993;82;21199;-81
2021/12/21 02:02:14;;;;;;;14.53;8.68;;;;;;;-0.12;96.33;99064.16;1667179;84;21730;-82
2021/12/21 02:05:19;;;;;;;17.02;8.88;;;;;;;-0.12;96.41;99064.66;1679791;83;21367;-82
2021/12/21 02:08:26;;;;;;;19.30;9.10;;;;;;;-0.15;96.29;99070.30;1723946;83;21362;-82
2021/12/21 02:11:31;;;;;;;12.58;8.08;;;;;;;-0.16;96.22;99067.27;1724937;83;21282;-82
2021/12/21 02:14:37;;;;;;;14.03;8.03;;;;;;;-0.18;96.14;99067.41;1723108;83;22139;-82
2021/12/21 02:18:08;;;;;;;15.53;8.05;;;;;;;-0.15;96.18;99073.83;1723539;82;21293;-82
2021/12/21 02:20:57;;;;;;;14.50;8.65;;;;;;;-0.14;95.96;99073.34;1715774;83;21305;-82
2021/12/21 02:24:04;;;;;;;13.55;8.00;;;;;;;-0.13;96.06;99072.38;1724621;82;21191;-82
2021/12/21 02:27:17;;;;;;;14.87;7.83;;;;;;;-0.11;96.25;99071.73;1724195;82;21190;-82
2021/12/21 02:30:19;;;;;;;16.87;8.85;;;;;;;-0.04;96.41;99072.89;1706445;83;21726;-82
2021/12/21 02:33:23;;;;;;;9.20;5.10;;;;;;;-0.02;96.18;99066.86;1672554;84;21245;-82
2021/12/21 02:36:29;;;;;;;14.78;8.63;;;;;;;-0.02;95.89;99069.55;1685391;83;21266;-82
2021/12/21 02:39:34;;;;;;;14.65;7.53;;;;;;;-0.10;95.50;99081.48;1651249;87;21801;-82
2021/12/21 02:42:39;;;;;;;14.70;7.08;;;;;;;-0.14;95.47;99080.05;1651288;85;21269;-82
2021/12/21 02:45:44;;;;;;;15.38;7.22;;;;;;;-0.17;95.47;99081.20;1674147;84;21967;-82
2021/12/21 02:48:42;;;;;;;14.63;7.45;;;;;;;-0.20;95.39;99080.62;1678460;85;21318;-82
2021/12/21 02:51:50;;;;;;;13.83;7.92;;;;;;;-0.24;95.29;99077.84;1724706;83;21303;-82
2021/12/21 02:54:54;;;;;;;11.95;7.80;;;;;;;-0.28;95.40;99075.45;1724909;83;21149;-82
2021/12/21 02:58:02;;;;;;;14.10;7.55;;;;;;;-0.27;95.56;99071.77;1724868;83;21184;-82
2021/12/21 03:01:08;;;;;;;14.28;8.13;;;;;;;-0.27;95.55;99081.67;1724725;83;21303;-82
2021/12/21 03:04:13;;;;;;;13.68;7.85;;;;;;;-0.28;95.54;99082.17;1723412;83;21891;-82
2021/12/21 03:10:57;;;;;;;15.03;7.83;;;;;;;-0.31;95.49;99078.91;1724774;83;21674;-82
2021/12/21 03:14:08;;;;;;;12.68;7.60;;;;;;;-0.35;95.39;99082.34;1724180;83;21175;-82
2021/12/21 03:17:14;;;;;;;10.78;6.53;;;;;;;-0.36;95.26;99087.37;1672342;84;21288;-82
2021/12/21 03:20:19;;;;;;;12.43;7.30;;;;;;;-0.41;95.24;99087.43;1674395;84;21575;-82
2021/12/21 03:23:25;;;;;;;14.85;7.97;;;;;;;-0.44;95.33;99097.94;1651374;85;22246;-81
2021/12/21 03:26:30;;;;;;;14.25;8.25;;;;;;;-0.46;95.47;99097.24;1651307;85;21292;-82
2021/12/21 03:29:36;;;;;;;13.55;7.47;;;;;;;-0.47;95.59;99092.86;1661063;84;21302;-82
2021/12/21 03:32:41;;;;;;;15.03;7.85;;;;;;;-0.47;95.65;99098.23;1724624;82;21279;-82
2021/12/21 03:35:48;;;;;;;16.95;8.55;;;;;;;-0.45;95.56;99086.00;1716953;83;21302;-81
2021/12/21 03:39:18;;;;;;;10.82;7.78;;;;;;;-0.45;95.37;99086.00;1666291;86;21349;-82
2021/12/21 03:42:03;;;;;;;14.35;8.10;;;;;;;-0.45;95.23;99080.63;1666410;86;21318;-82
2021/12/21 03:45:08;;;;;;;14.90;7.95;;;;;;;-0.45;94.98;99082.81;1686392;83;21328;-82
2021/12/21 03:48:15;;;;;;;12.80;6.75;;;;;;;-0.48;94.65;99088.45;1700812;83;21902;-82
2021/12/21 03:51:21;;;;;;;13.65;8.18;;;;;;;-0.48;94.56;99089.80;1690264;84;21296;-82
2021/12/21 03:54:26;;;;;;;13.55;7.67;;;;;;;-0.46;94.51;99093.21;1679079;84;21364;-82
2021/12/21 03:57:31;;;;;;;15.03;6.75;;;;;;;-0.42;94.51;99096.48;1678843;84;21316;-82
2021/12/21 04:00:37;;;;;;;13.32;7.53;;;;;;;-0.34;94.57;99098.82;1695854;83;21288;-82
2021/12/21 04:03:43;;;;;;;14.83;8.65;;;;;;;-0.25;94.44;99105.22;1701590;83;21297;-82
2021/12/21 04:06:49;;;;;;;17.32;9.88;;;;;;;-0.20;94.10;99114.21;1685842;84;21317;-82
2021/12/21 04:09:55;;;;;;;16.35;9.23;;;;;;;-0.19;93.86;99116.75;1678332;85;21198;-82
2021/12/21 04:13:01;;;;;;;14.15;8.70;;;;;;;-0.29;93.23;99116.72;1679996;85;21312;-82
2021/12/21 04:16:07;;;;;;;12.70;8.20;;;;;;;-0.42;93.20;99120.17;1691023;84;21116;-82
2021/12/21 04:19:13;;;;;;;15.23;8.50;;;;;;;-0.51;93.44;99118.30;1665781;85;21207;-82
2021/12/21 04:22:18;;;;;;;15.10;9.03;;;;;;;-0.55;93.97;99120.88;1712532;82;21336;-82
2021/12/21 04:25:23;;;;;;;15.70;8.88;;;;;;;-0.54;94.44;99119.39;1711918;84;21281;-82
2021/12/21 04:28:28;;;;;;;16.27;7.85;;;;;;;-0.47;94.82;99118.84;1725751;82;21345;-82
2021/12/21 04:31:33;;;;;;;16.23;8.33;;;;;;;-0.44;94.99;99124.80;1726011;81;21163;-82
2021/12/21 04:34:39;;;;;;;12.43;7.65;;;;;;;-0.42;94.98;99128.73;1725935;83;21247;-82
2021/12/21 04:37:48;;;;;;;14.07;8.43;;;;;;;-0.40;95.10;99138.33;1682344;84;21181;-82
2021/12/21 04:40:57;;;;;;;12.60;7.95;;;;;;;-0.36;95.38;99137.58;1714064;83;21299;-82
2021/12/21 04:44:01;;;;;;;15.32;8.43;;;;;;;-0.27;95.77;99145.67;1712521;84;21296;-81
2021/12/21 04:47:06;;;;;;;9.80;6.40;;;;;;;-0.23;95.82;99162.87;1690955;84;21741;-82
2021/12/21 04:50:10;;;;;;;4.70;3.58;;;;;;;-0.24;96.07;99177.28;1686393;84;21310;-81
2021/12/21 04:53:16;;;;;;;2.30;1.55;;;;;;;-0.45;94.90;99172.81;1691223;85;21345;-82
2021/12/21 04:56:22;;;;;;;3.10;2.40;;;;;;;-0.79;94.35;99179.77;1691143;85;21859;-83
2021/12/21 04:59:28;;;;;;;3.12;2.42;;;;;;;-1.23;94.64;99212.20;1689516;83;21164;-83
2021/12/21 05:02:34;;;;;;;2.58;2.25;;;;;;;-1.59;95.55;99223.19;1676983;84;21322;-83
2021/12/21 05:05:39;;;;;;;5.45;2.80;;;;;;;-1.82;96.48;99229.08;1680195;84;21180;-83
2021/12/21 05:08:52;;;;;;;5.42;3.30;;;;;;;-2.00;97.12;99237.25;1690530;84;21208;-83
2021/12/21 05:11:59;;;;;;;4.80;3.25;;;;;;;-2.07;97.90;99248.09;1690807;83;21190;-83
2021/12/21 05:15:00;;;;;;;5.20;3.37;;;;;;;-2.18;97.91;99261.49;1706109;82;21807;-83
2021/12/21 05:18:05;;;;;;;5.75;2.98;;;;;;;-2.28;98.41;99268.55;1695666;83;21268;-83
2021/12/21 05:21:11;;;;;;;6.05;3.50;;;;;;;-2.41;97.68;99275.34;1709636;83;21137;-83
2021/12/21 05:24:17;;;;;;;4.70;3.45;;;;;;;-2.59;97.20;99287.88;1705448;83;21298;-83
2021/12/21 05:27:23;;;;;;;5.22;3.47;;;;;;;-2.66;97.39;99277.73;1673549;84;21316;-82
2021/12/21 05:30:29;;;;;;;7.85;3.40;;;;;;;-2.75;97.52;99288.66;1695583;84;21171;-83
2021/12/21 05:33:35;;;;;;;3.20;2.55;;;;;;;-2.76;97.84;99285.63;1717235;83;21243;-82
2021/12/21 05:36:40;;;;;;;7.03;3.67;;;;;;;-2.76;98.00;99280.76;1688558;82;21367;-82
2021/12/21 05:40:01;;;;;;;4.40;2.77;;;;;;;-2.79;97.95;99283.17;1705029;84;21286;-83
2021/12/21 05:43:02;;;;;;;5.40;3.45;;;;;;;-2.85;97.71;99297.88;1704620;82;21287;-82
2021/12/21 05:46:08;;;;;;;9.45;4.70;;;;;;;-2.86;97.78;99306.87;1710479;84;21815;-83
2021/12/21 05:49:14;;;;;;;6.08;3.83;;;;;;;-2.77;98.07;99308.50;1706417;82;21206;-82
2021/12/21 05:52:19;;;;;;;7.95;4.58;;;;;;;-2.68;98.24;99315.80;1708131;82;21297;-83
2021/12/21 05:55:26;;;;;;;5.58;3.83;;;;;;;-2.58;98.36;99326.20;1717280;81;21295;-83
2021/12/21 05:58:31;;;;;;;5.22;3.65;;;;;;;-2.46;98.24;99321.72;1716913;81;21859;-82
2021/12/21 06:01:40;;;;;;;5.45;2.98;;;;;;;-2.35;98.11;99334.67;1712922;82;21288;-82
2021/12/21 06:04:44;;;;;;;5.40;3.52;;;;;;;-2.25;97.43;99331.28;1680211;84;21296;-81
2021/12/21 06:07:53;;;;;;;7.25;3.90;;;;;;;-2.25;96.60;99329.94;1698637;82;21804;-82
2021/12/21 06:11:00;;;;;;;4.95;3.22;;;;;;;-2.21;96.22;99329.58;1692798;83;21178;-81
2021/12/21 06:14:18;;;;;;;8.98;3.40;;;;;;;-2.15;95.91;99340.30;1703127;84;21342;-81
2021/12/21 06:25:02;;;;;;;8.33;3.87;;;;;;;-2.06;95.01;99341.77;1693214;83;21175;-82
2021/12/21 06:27:09;;;;;;;4.05;2.98;;;;;;;-2.02;94.74;99351.78;1717857;83;21169;-82
2021/12/21 06:30:15;;;;;;;5.30;3.02;;;;;;;-2.02;94.51;99358.48;1716606;81;21190;-81
2021/12/21 06:33:21;;;;;;;6.35;3.27;;;;;;;-2.00;94.47;99362.36;1687930;83;21192;-82
2021/12/21 06:36:26;;;;;;;4.65;2.95;;;;;;;-1.92;94.51;99363.97;1701066;82;21790;-81
2021/12/21 06:39:33;;;;;;;5.72;3.22;;;;;;;-1.85;94.23;99364.69;1700752;82;21509;-81
2021/12/21 06:42:37;;;;;;;4.67;2.90;;;;;;;-1.74;93.93;99379.06;1719509;81;21224;-81
2021/12/21 06:45:52;;;;;;;5.67;3.00;;;;;;;-1.62;93.56;99382.13;1715673;81;21484;-81
2021/12/21 06:52:17;;;;;;;4.42;2.95;;;;;;;-1.39;92.25;99377.13;1711768;81;21717;-82
2021/12/21 06:55:27;;;;;;;5.55;3.50;;;;;;;-1.36;90.63;99375.55;1697346;81;21786;-82
2021/12/21 06:58:33;;;;;;;5.80;3.62;;;;;;;-1.32;90.13;99376.13;1717139;81;21249;-82
2021/12/21 07:01:39;;;;;;;5.00;3.17;;;;;;;-1.23;89.85;99379.91;1668353;84;21769;-83
2021/12/21 07:04:45;;;;;;;5.67;3.45;;;;;;;-1.16;89.48;99386.00;1708670;82;21175;-82
2021/12/21 07:07:52;;;;;;;7.25;4.22;;;;;;;-1.13;88.58;99388.45;1680894;83;21493;-81
2021/12/21 07:11:11;;;;;;;8.15;4.80;;;;;;;-1.15;88.24;99390.88;1709603;81;21240;-81
2021/12/21 07:20:41;;;;;;;11.05;6.00;;;;;;;-1.17;86.31;99404.92;1674653;82;21257;-80
2021/12/21 07:23:46;;;;;;;10.98;6.30;;;;;;;-1.30;85.99;99407.73;1691514;83;21615;-83
2021/12/21 07:26:55;;;;;;;13.60;6.97;;;;;;;-1.43;86.12;99419.92;1693959;82;21205;-83
2021/12/21 07:29:54;;;;;;;21.80;10.53;;;;;;;-1.53;86.45;99404.20;1696032;82;21442;-82
2021/12/21 07:33:06;;;;;;;21.25;10.70;;;;;;;-1.60;86.69;99419.05;1692208;82;21836;-82
2021/12/21 07:36:14;;;;;;;18.23;10.28;;;;;;;-1.67;86.87;99420.53;1696988;82;21391;-81
2021/12/21 07:39:22;;;;;;;17.87;9.35;;;;;;;-1.71;87.14;99427.95;1697657;82;21190;-83
2021/12/21 07:42:31;;;;;;;20.88;9.33;;;;;;;-1.71;87.35;99443.19;1686716;83;21796;-83
2021/12/21 07:45:38;;;;;;;14.33;7.65;;;;;;;-1.72;87.47;99440.14;1705444;82;21229;-83
2021/12/21 07:48:43;;;;;;;9.75;5.78;;;;;;;-1.69;87.73;99447.47;1701169;82;21205;-82
2021/12/21 07:51:49;;;;;;;13.08;6.00;;;;;;;-1.60;87.76;99448.09;1694457;82;21242;-83
2021/12/21 07:54:57;;;;;;;6.97;5.12;;;;;;;-1.53;87.49;99448.45;1700899;82;21245;-85
2021/12/21 07:58:01;;;;;;;6.60;4.65;;;;;;;-1.50;87.11;99448.72;1694493;81;21189;-84
2021/12/21 08:01:07;;;;;;;7.35;5.17;;;;;;;-1.48;86.88;99446.27;1705083;83;21768;-84
2021/12/21 08:04:14;;;;;;;6.20;4.17;;;;;;;-1.48;86.63;99448.09;1715430;81;21851;-83
2021/12/21 08:07:25;;;;;;;6.00;4.10;;;;;;;-1.52;86.51;99448.81;1692875;83;21807;-82
2021/12/21 08:10:53;;;;;;;7.25;4.47;;;;;;;-1.53;86.66;99457.84;1658764;84;21212;-85
2021/12/21 08:14:06;;;;;;;5.03;3.50;;;;;;;-1.50;86.58;99457.61;1701458;82;21335;-83
2021/12/21 08:17:23;;;;;;;6.58;4.17;;;;;;;-1.43;86.43;99453.45;1656119;82;21226;-85
2021/12/21 08:20:37;;;;;;;7.12;4.20;;;;;;;-1.33;86.18;99459.80;1668273;83;21252;-84
2021/12/21 08:23:53;;;;;;;6.80;4.47;;;;;;;-1.24;85.86;99462.73;1702365;82;21632;-84
2021/12/21 08:27:25;;;;;;;9.95;6.28;;;;;;;-1.19;85.70;99467.24;1693405;82;21308;-85
2021/12/21 08:30:34;;;;;;;8.93;6.30;;;;;;;-1.14;85.45;99469.06;1691516;82;21821;-84
2021/12/21 08:33:42;;;;;;;9.60;6.53;;;;;;;-1.12;84.96;99472.50;1685177;83;21837;-84
2021/12/21 08:36:49;;;;;;;11.63;7.60;;;;;;;-1.11;85.23;99471.52;1687957;83;21553;-84
2021/12/21 08:39:55;;;;;;;15.93;9.45;;;;;;;-1.05;85.18;99474.55;1686514;83;21236;-84
2021/12/21 08:43:03;;;;;;;31.48;12.28;;;;;;;-0.97;85.07;99476.63;1684655;83;21211;-81
2021/12/21 08:46:12;;;;;;;23.38;12.75;;;;;;;-0.80;85.26;99476.59;1688189;83;21818;-84
2021/12/21 08:49:26;;;;;;;28.35;14.95;;;;;;;-0.59;85.09;99467.29;1652053;83;21196;-85
2021/12/21 08:52:34;;;;;;;34.13;17.52;;;;;;;-0.33;84.53;99471.38;1668274;83;21212;-83
2021/12/21 08:55:41;;;;;;;29.18;14.10;;;;;;;-0.15;83.00;99469.45;1690507;83;21278;-84
2021/12/21 08:58:50;;;;;;;23.35;12.45;;;;;;;-0.10;82.18;99477.98;1686649;83;21218;-83
2021/12/21 09:01:57;;;;;;;29.52;14.93;;;;;;;-0.07;82.24;99473.21;1690324;83;21615;-84
2021/12/21 09:05:07;;;;;;;27.70;15.55;;;;;;;-0.12;82.01;99478.62;1688482;83;22146;-84
2021/12/21 09:08:23;;;;;;;21.35;12.98;;;;;;;-0.19;81.96;99486.81;1662974;83;21261;-83
2021/12/21 09:11:31;;;;;;;21.65;13.05;;;;;;;-0.36;82.36;99489.09;1666766;82;21191;-83
2021/12/21 09:14:43;;;;;;;14.78;9.35;;;;;;;-0.46;83.12;99484.61;1685100;83;21980;-89
2021/12/21 09:17:56;;;;;;;13.53;8.23;;;;;;;-0.53;83.65;99482.89;1666956;83;21199;-84
2021/12/21 09:21:09;;;;;;;14.70;8.88;;;;;;;-0.57;83.82;99480.94;1689348;83;21178;-88
2021/12/21 09:24:15;;;;;;;13.95;8.40;;;;;;;-0.59;83.94;99488.28;1682936;83;21195;-86
2021/12/21 09:27:23;;;;;;;13.30;6.97;;;;;;;-0.48;84.09;99495.95;1684300;83;21722;-86
2021/12/21 09:30:33;;;;;;;13.55;7.12;;;;;;;-0.38;83.65;99495.55;1685501;83;21204;-83
2021/12/21 09:33:42;;;;;;;9.95;6.12;;;;;;;-0.32;83.24;99488.35;1684441;83;21246;-85
2021/12/21 09:36:52;;;;;;;11.53;7.45;;;;;;;-0.28;82.72;99488.46;1686631;83;21225;-85
2021/12/21 09:40:10;;;;;;;10.05;6.65;;;;;;;-0.30;81.78;99485.88;1686055;83;21815;-84
2021/12/21 09:43:31;;;;;;;12.65;6.60;;;;;;;-0.38;80.96;99488.34;1685674;82;21214;-83
2021/12/21 09:46:38;;;;;;;13.75;5.75;;;;;;;-0.54;80.48;99493.28;1671469;83;21230;-82
2021/12/21 09:49:49;;;;;;;7.55;6.17;;;;;;;-0.68;80.13;99503.81;1703957;82;21477;-82
2021/12/21 09:53:08;;;;;;;7.95;5.83;;;;;;;-0.83;80.47;99503.22;1636213;84;21226;-84
2021/12/21 09:56:19;;;;;;;10.18;6.12;;;;;;;-0.92;80.51;99499.94;1699662;82;21269;-83
2021/12/21 09:59:34;;;;;;;8.10;5.75;;;;;;;-1.00;81.33;99492.13;1656968;83;21211;-83
2021/12/21 10:02:41;;;;;;;8.93;6.20;;;;;;;-1.11;81.63;99494.33;1683146;83;21237;-84
2021/12/21 10:05:50;;;;;;;8.88;6.40;;;;;;;-1.15;82.33;99494.20;1681555;83;21316;-83
2021/12/21 10:09:00;;;;;;;12.45;6.17;;;;;;;-1.12;80.08;99489.95;1684351;83;21522;-88
2021/12/21 10:12:10;;;;;;;10.60;5.70;;;;;;;-1.13;79.28;99494.92;1679857;81;21581;-83
2021/12/21 10:15:23;;;;;;;7.62;5.22;;;;;;;-1.14;78.47;99497.25;1716364;81;21206;-81
2021/12/21 10:18:43;;;;;;;6.42;4.03;;;;;;;-1.22;78.39;99503.24;1697402;82;21574;-84
2021/12/21 10:21:52;;;;;;;6.70;4.62;;;;;;;-1.21;79.15;99504.09;1699949;82;21690;-82
2021/12/21 10:24:58;;;;;;;6.33;3.65;;;;;;;-1.22;78.42;99513.09;1702652;82;21978;-81
2021/12/21 10:28:10;;;;;;;6.22;3.95;;;;;;;-1.27;77.37;99505.89;1700260;82;21218;-85
2021/12/21 10:31:36;;;;;;;4.60;3.58;;;;;;;-1.34;77.44;99522.48;1682755;82;22140;-85
2021/12/21 10:34:41;;;;;;;5.50;3.70;;;;;;;-1.38;77.54;99511.63;1699792;82;21449;-84
2021/12/21 10:37:49;;;;;;;4.20;3.12;;;;;;;-1.45;78.17;99515.77;1701246;82;21546;-84
2021/12/21 10:40:56;;;;;;;6.40;3.52;;;;;;;-1.47;78.06;99519.53;1690680;82;22167;-84
2021/12/21 10:44:14;;;;;;;5.30;3.98;;;;;;;-1.44;78.54;99533.57;1692245;82;22265;-84
2021/12/21 10:47:20;;;;;;;4.42;3.42;;;;;;;-1.36;78.01;99527.13;1695961;82;21249;-83
2021/12/21 10:50:32;;;;;;;3.77;3.30;;;;;;;-1.35;77.33;99523.47;1699433;82;22417;-83
2021/12/21 10:53:37;;;;;;;2.87;2.55;;;;;;;-1.35;77.24;99519.44;1692170;82;21182;-83
2021/12/21 10:56:44;;;;;;;3.30;2.72;;;;;;;-1.35;76.71;99524.81;1693756;82;21363;-85
2021/12/21 10:59:53;;;;;;;4.10;3.22;;;;;;;-1.35;76.68;99514.56;1692599;82;21204;-85
2021/12/21 11:03:01;;;;;;;4.50;2.42;;;;;;;-1.34;76.46;99522.97;1690646;82;21273;-86
2021/12/21 11:06:22;;;;;;;4.12;3.00;;;;;;;-1.34;75.85;99525.16;1687803;82;21210;-85
2021/12/21 11:09:36;;;;;;;;;;;;;;;-1.47;75.59;99531.11;1701892;82;21881;-86
2021/12/21 11:12:55;;;;;;;4.40;3.12;;;;;;;-1.65;76.66;99527.16;1697374;82;20351;-85
2021/12/21 11:16:06;;;;;;;4.00;2.95;;;;;;;-1.77;77.40;99517.41;1692625;82;21623;-83
2021/12/21 11:19:09;;;;;;;6.78;2.77;;;;;;;-1.97;76.84;99514.91;1692733;82;21605;-85
2021/12/21 11:22:14;;;;;;;4.75;2.83;;;;;;;-2.18;76.53;99532.95;1696522;82;21216;-84
2021/12/21 11:25:20;;;;;;;4.10;2.60;;;;;;;-2.36;76.08;99524.45;1689279;83;21709;-83
2021/12/21 11:28:29;;;;;;;3.27;2.37;;;;;;;-2.45;76.34;99530.48;1683417;83;21212;-84
2021/12/21 11:31:55;;;;;;;2.97;2.00;;;;;;;-2.54;75.05;99535.20;1686025;83;21190;-79
2021/12/21 11:37:20;;;;;;;3.17;2.22;;;;;;;-2.68;72.90;99543.36;1664383;83;21668;-80
2021/12/21 11:38:25;;;;;;;6.62;2.15;;;;;;;-2.88;72.82;99542.97;1638860;83;21212;-84
2021/12/21 11:41:39;;;;;;;4.03;2.52;;;;;;;-2.89;73.11;99558.66;1673133;83;21320;-83
2021/12/21 11:45:13;;;;;;;4.45;2.50;;;;;;;-2.89;73.04;99563.17;1705132;82;21340;-83
2021/12/21 11:49:26;;;;;;;4.60;2.17;;;;;;;-2.97;72.54;99562.36;1694156;82;21779;-82
2021/12/21 11:53:12;;;;;;;3.05;2.45;;;;;;;-3.05;72.75;99567.42;1614468;82;21244;-84
2021/12/21 12:00:43;;;;;;;6.55;2.67;;;;;;;-3.20;73.97;99566.69;1691425;82;21402;-82
2021/12/21 12:04:13;;;;;;;4.53;2.83;;;;;;;-3.22;74.66;99579.78;1688405;83;21197;-83
2021/12/21 12:07:34;;;;;;;6.62;3.08;;;;;;;-3.25;75.38;99571.95;1688070;83;21820;-80
2021/12/21 12:10:45;;;;;;;5.45;3.40;;;;;;;-3.31;75.73;99576.41;1694154;82;21522;-84
2021/12/21 12:13:51;;;;;;;5.42;3.27;;;;;;;-3.44;76.59;99577.23;1674677;83;21610;-81
2021/12/21 12:17:06;;;;;;;6.20;4.10;;;;;;;-3.56;76.74;99583.45;1678754;83;21234;-81
2021/12/21 12:20:12;;;;;;;5.22;3.50;;;;;;;-3.69;77.10;99590.58;1707205;82;21190;-81
2021/12/21 12:23:22;;;;;;;5.45;3.20;;;;;;;-3.81;77.52;99592.73;1703659;82;21374;-80
2021/12/21 12:26:40;;;;;;;6.65;3.50;;;;;;;-3.88;78.12;99607.84;1706549;82;21387;-81
2021/12/21 12:29:55;;;;;;;7.50;3.25;;;;;;;-3.92;78.00;99615.69;1706549;82;21343;-82
2021/12/21 12:33:08;;;;;;;6.67;3.20;;;;;;;-3.95;78.18;99622.59;1702702;82;21512;-77
2021/12/21 12:36:13;;;;;;;3.70;2.92;;;;;;;-3.99;77.78;99620.22;1709309;82;21182;-79
2021/12/21 12:39:18;;;;;;;2.67;2.35;;;;;;;-4.04;77.21;99625.02;1731536;81;21822;-81
2021/12/21 12:42:34;;;;;;;3.65;2.55;;;;;;;-4.12;76.22;99622.34;1716556;82;21183;-81
2021/12/21 12:46:04;;;;;;;3.42;2.60;;;;;;;-4.21;75.48;99631.44;1714039;82;21914;-83
2021/12/21 12:49:08;;;;;;;2.43;2.00;;;;;;;-4.29;75.54;99643.94;1715621;82;21261;-82
2021/12/21 12:52:28;;;;;;;4.17;2.60;;;;;;;-4.33;75.84;99648.23;1712525;82;21232;-83
2021/12/21 12:55:36;;;;;;;2.55;2.27;;;;;;;-4.38;75.81;99648.53;1714969;82;21508;-83
2021/12/21 12:58:43;;;;;;;2.20;1.80;;;;;;;-4.41;75.45;99658.09;1711807;82;21852;-84
2021/12/21 13:01:53;;;;;;;4.00;2.62;;;;;;;-4.46;75.27;99651.71;1712644;82;21952;-84
2021/12/21 13:04:57;;;;;;;;;;;;;;;-4.47;75.39;99656.67;1750296;81;21148;-83
2021/12/21 13:08:02;;;;;;;3.75;2.42;;;;;;;-4.46;75.07;99665.06;1731632;81;20727;-85
2021/12/21 13:11:09;;;;;;;3.35;2.20;;;;;;;-4.50;74.48;99658.67;1692205;82;21542;-84
2021/12/21 13:14:24;;;;;;;3.87;2.30;;;;;;;-4.54;74.19;99666.49;1728862;82;21810;-84
2021/12/21 13:17:29;;;;;;;3.55;2.25;;;;;;;-4.58;74.26;99663.63;1697870;83;21229;-83
2021/12/21 13:20:35;;;;;;;4.10;2.67;;;;;;;-4.62;74.42;99665.63;1694027;83;21393;-83
2021/12/21 13:23:40;;;;;;;4.12;2.27;;;;;;;-4.63;74.50;99669.26;1715170;82;21258;-82
2021/12/21 13:26:56;;;;;;;3.75;2.75;;;;;;;-4.64;74.46;99674.22;1705044;82;22318;-82
2021/12/21 13:30:05;;;;;;;4.12;2.87;;;;;;;-4.65;74.47;99683.19;1702878;82;21588;-82
2021/12/21 13:33:11;;;;;;;3.17;2.70;;;;;;;-4.67;74.54;99691.75;1691946;82;21198;-84
2021/12/21 13:36:18;;;;;;;7.87;3.35;;;;;;;-4.70;74.48;99690.63;1707572;82;21289;-81
2021/12/21 13:39:38;;;;;;;4.15;2.67;;;;;;;-4.72;74.53;99694.70;1700620;82;21317;-81
2021/12/21 13:42:43;;;;;;;4.37;2.92;;;;;;;-4.73;74.53;99696.14;1700663;82;22246;-81
2021/12/21 13:45:48;;;;;;;3.50;2.42;;;;;;;-4.75;74.52;99696.25;1701906;82;21588;-81
2021/12/21 13:49:03;;;;;;;3.52;2.65;;;;;;;-4.73;74.56;99697.48;1704540;82;21328;-81
2021/12/21 13:52:08;;;;;;;5.22;2.60;;;;;;;-4.73;74.63;99708.15;1697416;82;21235;-81
2021/12/21 13:55:15;;;;;;;3.02;2.30;;;;;;;-4.72;74.70;99710.71;1719979;81;21164;-81
2021/12/21 13:58:20;;;;;;;3.75;2.37;;;;;;;-4.68;74.56;99715.39;1720174;81;21847;-81
2021/12/21 14:01:36;;;;;;;4.87;2.60;;;;;;;-4.67;74.22;99721.11;1716412;81;21812;-82
2021/12/21 14:04:58;;;;;;;4.33;2.47;;;;;;;-4.66;74.17;99730.38;1723156;81;21238;-81
2021/12/21 14:07:50;;;;;;;3.30;2.47;;;;;;;-4.67;74.12;99725.11;1720905;82;21167;-81
2021/12/21 14:11:00;;;;;;;2.92;2.37;;;;;;;-4.68;73.96;99727.41;1701796;81;21147;-80
2021/12/21 14:14:04;;;;;;;4.62;3.00;;;;;;;-4.70;73.97;99730.66;1721851;81;21843;-81
2021/12/21 14:17:12;;;;;;;4.83;2.77;;;;;;;-4.73;73.60;99737.50;1722873;81;21310;-80
2021/12/21 14:20:16;;;;;;;2.77;2.12;;;;;;;-4.76;73.21;99747.02;1734120;82;21371;-83
2021/12/21 14:23:26;;;;;;;5.17;2.83;;;;;;;-4.82;73.12;99749.59;1730140;82;21290;-82
2021/12/21 14:26:57;;;;;;;3.90;2.33;;;;;;;-4.85;72.83;99757.77;1730083;81;21183;-82
2021/12/21 14:30:20;;;;;;;2.83;2.52;;;;;;;-4.89;72.23;99759.78;1701007;82;21612;-84
2021/12/21 14:33:29;;;;;;;4.00;2.67;;;;;;;-4.95;71.48;99772.13;1726474;82;21886;-81
2021/12/21 14:36:35;;;;;;;5.72;2.80;;;;;;;-5.01;71.03;99767.65;1694918;84;21218;-81
2021/12/21 14:39:42;;;;;;;4.70;2.58;;;;;;;-5.10;70.70;99774.38;1699080;82;21202;-81
2021/12/21 14:42:48;;;;;;;7.72;2.47;;;;;;;-5.18;68.75;99784.16;1699776;82;21304;-82
2021/12/21 14:45:56;;;;;;;4.60;2.80;;;;;;;-5.25;66.58;99785.48;1704666;82;21288;-84
2021/12/21 14:49:17;;;;;;;6.22;2.72;;;;;;;-5.34;64.37;99801.16;1678838;85;21282;-85
2021/12/21 14:52:34;;;;;;;3.72;2.65;;;;;;;-5.43;62.91;99801.20;1714673;82;21321;-82
2021/12/21 14:55:36;;;;;;;5.55;2.50;;;;;;;-5.49;61.86;99810.41;1716369;83;21309;-81
2021/12/21 14:58:42;;;;;;;4.78;3.02;;;;;;;-5.55;61.16;99805.44;1706536;82;21397;-84
2021/12/21 15:01:55;;;;;;;6.50;3.10;;;;;;;-5.60;61.56;99806.62;1702902;84;21349;-83
2021/12/21 15:05:05;;;;;;;5.67;3.98;;;;;;;-5.64;62.02;99807.29;1715801;82;21854;-82
2021/12/21 15:08:15;;;;;;;6.47;3.55;;;;;;;-5.64;61.83;99805.10;1715306;82;21241;-85
2021/12/21 15:11:21;;;;;;;6.08;3.83;;;;;;;-5.68;61.94;99795.94;1716510;82;21186;-84
2021/12/21 15:14:28;;;;;;;5.80;3.27;;;;;;;-5.70;62.43;99807.61;1688215;83;21219;-82
2021/12/21 15:17:33;;;;;;;6.20;3.95;;;;;;;-5.72;62.92;99798.86;1711098;82;21871;-81
2021/12/21 15:20:39;;;;;;;10.38;4.50;;;;;;;-5.78;62.82;99810.72;1695947;84;21198;-82
2021/12/21 15:23:46;;;;;;;7.15;4.28;;;;;;;-5.79;63.41;99814.30;1699664;84;21308;-83
2021/12/21 15:26:52;;;;;;;7.67;4.30;;;;;;;-5.81;63.89;99813.55;1700700;84;21927;-80
2021/12/21 15:29:58;;;;;;;8.60;4.37;;;;;;;-5.81;64.01;99816.69;1700950;84;21842;-80
2021/12/21 15:33:04;;;;;;;10.15;4.20;;;;;;;-5.82;64.10;99812.31;1699960;83;21843;-82
2021/12/21 15:36:09;;;;;;;11.93;5.25;;;;;;;-5.80;64.40;99827.25;1700468;84;21823;-83
2021/12/21 15:39:17;;;;;;;12.50;4.97;;;;;;;-5.76;64.49;99827.95;1700735;84;21229;-80